Flight Track Log - Related Links

Times and Time Zones

All times are in EDT time to prevent confusion due to time zone crossing. See the UAL1649 flight status page for this flight to view local times or setup timezone preferences in your user account.

Time Position Orientation Groundspeed Altitude Reporting Facility
EDT Latitude Longitude Course Direction KTS MPH feet Rate Location/Type
Thu 09:21:41 PM 42.0000 -87.9500 261° West 187 215 2,200  Level Chicago TRACON
Thu 09:22:35 PM 42.0667 -88.0000 331° Northwest 247 284 4,400 1,600 Climbing Chicago TRACON
Thu 09:23:41 PM 42.1333 -88.0500 331° Northwest 288 331 5,400 2,015 Climbing Chicago TRACON
Thu 09:24:00 PM 41.9099 -88.5244 261° West  Level FlightAware Approximate
Thu 09:24:52 PM 42.1411 -88.1544 276° West 266 306 9,000  Level Chicago Center
Thu 09:25:00 PM 41.8914 -88.6817 261° West  Level FlightAware Approximate
Thu 09:25:54 PM 42.1164 -88.2486 251° West 266 306 12,100  Level Chicago Center
Thu 09:26:00 PM 41.8732 -88.8390 261° West  Level FlightAware Approximate
Thu 09:26:56 PM 42.0864 -88.3586 250° West 306 352 13,500  Level Chicago Center
Thu 09:27:57 PM 42.0447 -88.5061 249° West 347 399 16,300 2,634 Climbing Chicago Center
Thu 09:28:59 PM 42.0069 -88.6347 248° West 367 422 18,900 2,371 Climbing Chicago Center
Thu 09:30:01 PM 41.9678 -88.7656 248° West 378 435 21,200 2,129 Climbing Chicago Center
Thu 09:31:03 PM 41.9472 -88.9072 259° West 394 453 23,300 1,935 Climbing Chicago Center
Thu 09:32:05 PM 41.9372 -89.0564 265° West 403 464 25,200 1,839 Climbing Chicago Center
Thu 09:33:07 PM 41.9200 -89.2367 263° West 409 471 27,100 1,610 Climbing Chicago Center
Thu 09:34:08 PM 41.9075 -89.3928 264° West 419 482 28,500 1,268 Climbing Chicago Center
Thu 09:35:10 PM 41.8922 -89.5522 263° West 432 497 29,700 1,355 Climbing Chicago Center
Thu 09:36:12 PM 41.8769 -89.7133 263° West 437 503 31,300 1,597 Climbing Chicago Center
Thu 09:37:14 PM 41.8611 -89.8733 262° West 436 502 33,000 1,548 Climbing Chicago Center
Thu 09:38:16 PM 41.8486 -90.0411 264° West 426 490 34,500 1,415 Climbing Chicago Center
Thu 09:39:17 PM 41.8328 -90.1961 262° West 423 487 35,900 1,268 Climbing Chicago Center
Thu 09:40:19 PM 41.8164 -90.3492 262° West 420 483 37,100 1,016 Climbing Chicago Center
Thu 09:41:21 PM 41.8014 -90.4983 262° West 412 474 38,000 439 Climbing Chicago Center
Thu 09:42:22 PM 41.7819 -90.6822 262° West 415 478 38,000  Level Chicago Center
Thu 09:43:24 PM 41.7661 -90.8306 262° West 409 471 38,000  Level Chicago Center
Thu 09:44:26 PM 41.7503 -90.9825 262° West 412 474 38,000  Level Chicago Center
Thu 09:45:28 PM 41.7353 -91.1336 262° West 411 473 38,000  Level Chicago Center
Thu 09:46:29 PM 41.7189 -91.2831 262° West 409 471 38,000  Level Chicago Center
Thu 09:47:31 PM 41.7033 -91.4308 262° West 404 465 38,000  Level Chicago Center
Thu 09:48:32 PM 41.6822 -91.6097 261° West 407 468 38,000  Level Chicago Center
Thu 09:49:34 PM 41.6664 -91.7567 262° West 405 466 38,000  Level Chicago Center
Thu 09:50:36 PM 41.6503 -91.9069 262° West 407 468 38,000  Level Chicago Center
Thu 09:51:37 PM 41.6322 -92.0561 261° West 409 471 38,000  Level Chicago Center
Thu 09:52:39 PM 41.6142 -92.2081 261° West 412 474 38,000  Level Chicago Center
Thu 09:53:40 PM 41.5961 -92.3578 261° West 412 474 38,000  Level Chicago Center
Thu 09:54:42 PM 41.5797 -92.5094 262° West 412 474 38,000  Level Chicago Center
Thu 09:55:44 PM 41.5575 -92.6894 261° West 413 475 38,000  Level Chicago Center
Thu 09:56:45 PM 41.5394 -92.8411 261° West 414 476 38,000  Level Chicago Center
Thu 09:57:41 PM 41.5250 -92.9611 261° West 413 475 38,000  Level Minneapolis Center
Thu 09:58:42 PM 41.5019 -93.1414 260° West 414 476 38,000  Level Minneapolis Center
Thu 09:59:44 PM 41.4836 -93.2881 261° West 412 474 38,000  Level Minneapolis Center
Thu 10:00:45 PM 41.4650 -93.4378 261° West 412 474 38,000  Level Minneapolis Center
Thu 10:01:46 PM 41.4453 -93.5875 260° West 413 475 38,000  Level Minneapolis Center
Thu 10:02:48 PM 41.4372 -93.7400 266° West 417 480 38,000  Level Minneapolis Center
Thu 10:03:49 PM 41.4414 -93.8864 272° West 409 471 38,000  Level Minneapolis Center
Thu 10:04:51 PM 41.4411 -94.0711 270° West 416 479 38,000  Level Minneapolis Center
Thu 10:05:52 PM 41.4406 -94.2300 270° West 417 480 38,000  Level Minneapolis Center
Thu 10:06:53 PM 41.4403 -94.3858 270° West 421 484 38,000  Level Minneapolis Center
Thu 10:07:55 PM 41.4394 -94.5389 270° West 417 480 38,000  Level Minneapolis Center
Thu 10:08:56 PM 41.4403 -94.6925 270° West 416 479 38,000  Level Minneapolis Center
Thu 10:09:58 PM 41.4400 -94.8483 270° West 421 484 38,000  Level Minneapolis Center
Thu 10:10:59 PM 41.4400 -95.0000 270° West 412 474 38,000  Level Minneapolis Center
Thu 10:12:00 PM 41.4381 -95.1536 269° West 414 476 38,000  Level Minneapolis Center
Thu 10:13:02 PM 41.4381 -95.3117 270° West 425 489 38,000  Level Minneapolis Center
Thu 10:14:03 PM 41.4303 -95.4669 266° West 421 484 38,000  Level Minneapolis Center
Thu 10:15:05 PM 41.4189 -95.6364 265° West 423 487 38,000  Level Minneapolis Center
Thu 10:16:06 PM 41.4094 -95.7892 265° West 421 484 38,000  Level Minneapolis Center
Thu 10:17:07 PM 41.3981 -95.9439 264° West 421 484 38,000  Level Minneapolis Center
Thu 10:18:09 PM 41.3869 -96.1317 266° West 423 487 38,000  Level Minneapolis Center
Thu 10:19:10 PM 41.3764 -96.2883 265° West 424 488 38,000  Level Minneapolis Center
Thu 10:20:12 PM 41.3658 -96.4486 265° West 423 487 38,000  Level Minneapolis Center
Thu 10:21:14 PM 41.3550 -96.6031 265° West 418 481 38,000  Level Minneapolis Center
Thu 10:22:15 PM 41.3433 -96.7561 264° West 415 478 38,000  Level Minneapolis Center
Thu 10:23:17 PM 41.3314 -96.9100 264° West 417 480 38,000  Level Minneapolis Center
Thu 10:24:19 PM 41.3197 -97.0650 264° West 420 483 38,000  Level Minneapolis Center
Thu 10:25:20 PM 41.3072 -97.2192 264° West 421 484 38,000  Level Minneapolis Center
Thu 10:26:22 PM 41.2942 -97.4022 265° West 422 486 38,000  Level Minneapolis Center
Thu 10:27:23 PM 41.2819 -97.5575 264° West 423 487 38,000  Level Minneapolis Center
Thu 10:28:25 PM 41.2683 -97.7144 263° West 425 489 38,000  Level Minneapolis Center
Thu 10:29:27 PM 41.2558 -97.8714 264° West 426 490 38,000  Level Minneapolis Center
Thu 10:30:28 PM 41.2431 -98.0281 264° West 428 493 38,000  Level Minneapolis Center
Thu 10:31:30 PM 41.2297 -98.1842 264° West 426 490 38,000  Level Minneapolis Center
Thu 10:32:31 PM 41.2167 -98.3397 264° West 425 489 38,000  Level Minneapolis Center
Thu 10:33:33 PM 41.2031 -98.4989 264° West 425 489 38,000  Level Minneapolis Center
Thu 10:34:35 PM 41.1894 -98.6539 263° West 425 489 38,000  Level Minneapolis Center
Thu 10:35:36 PM 41.1728 -98.8425 263° West 427 491 38,000  Level Minneapolis Center
Thu 10:36:38 PM 41.1581 -98.9992 263° West 428 493 38,000  Level Minneapolis Center
Thu 10:37:50 PM 41.1419 -99.1683 263° West 425 489 38,000  Level Denver Center
Thu 10:38:52 PM 41.1275 -99.3231 263° West 423 487 38,000  Level Denver Center
Thu 10:39:53 PM 41.1122 -99.4847 263° West 423 487 38,000  Level Denver Center
Thu 10:40:55 PM 41.0950 -99.6556 262° West 421 484 38,000  Level Denver Center
Thu 10:41:57 PM 41.0789 -99.8153 262° West 420 483 38,000  Level Denver Center
Thu 10:42:59 PM 41.0633 -99.9714 263° West 416 479 38,000  Level Denver Center
Thu 10:44:00 PM 41.0494 -100.1164 263° West 417 480 38,000  Level Denver Center
Thu 10:45:02 PM 41.0314 -100.2858 262° West 417 480 38,000  Level Denver Center
Thu 10:46:03 PM 41.0164 -100.4317 262° West 419 482 38,000  Level Denver Center
Thu 10:47:05 PM 40.9989 -100.6000 262° West 418 481 38,000  Level Denver Center
Thu 10:48:07 PM 40.9836 -100.7444 262° West 420 483 38,000  Level Denver Center
Thu 10:49:08 PM 40.9636 -100.9114 261° West 419 482 38,000  Level Denver Center
Thu 10:50:10 PM 40.9478 -101.0553 262° West 418 481 38,000  Level Denver Center
Thu 10:51:12 PM 40.9283 -101.2256 261° West 421 484 38,000  Level Denver Center
Thu 10:52:13 PM 40.9119 -101.3714 262° West 421 484 38,000  Level Denver Center
Thu 10:53:15 PM 40.8956 -101.5189 262° West 424 488 38,000  Level Denver Center
Thu 10:54:16 PM 40.8756 -101.6889 261° West 421 484 38,000  Level Denver Center
Thu 10:55:18 PM 40.8583 -101.8347 261° West 421 484 38,000  Level Denver Center
Thu 10:56:20 PM 40.8375 -102.0061 261° West 424 488 38,000  Level Denver Center
Thu 10:57:21 PM 40.8197 -102.1539 261° West 426 490 38,000  Level Denver Center
Thu 10:58:23 PM 40.7994 -102.3242 261° West 422 486 38,000  Level Denver Center
Thu 10:59:25 PM 40.7803 -102.4717 260° West 425 489 38,000  Level Denver Center
Thu 11:00:26 PM 40.7594 -102.6431 261° West 424 488 38,000  Level Denver Center
Thu 11:01:28 PM 40.7408 -102.7906 261° West 426 490 38,000  Level Denver Center
Thu 11:02:29 PM 40.7211 -102.9397 260° West 432 497 38,000  Level Denver Center
Thu 11:03:31 PM 40.7000 -103.1108 261° West 425 489 38,000  Level Denver Center
Thu 11:04:32 PM 40.6808 -103.2592 260° West 428 493 38,000  Level Denver Center
Thu 11:05:34 PM 40.6586 -103.4236 260° West 428 493 38,000  Level Denver Center
Thu 11:06:35 PM 40.6394 -103.5694 260° West 424 488 38,000  Level Denver Center
Thu 11:07:37 PM 40.6156 -103.7431 260° West 430 495 38,000  Level Denver Center
Thu 11:08:38 PM 40.5964 -103.8886 260° West 425 489 38,000  Level Denver Center
Thu 11:09:40 PM 40.5758 -104.0342 260° West 423 487 38,000  Level Denver Center
Thu 11:10:41 PM 40.5528 -104.2031 260° West 435 501 38,000  Level Denver Center
Thu 11:11:43 PM 40.5289 -104.3658 259° West 427 491 38,000  Level Denver Center
Thu 11:12:44 PM 40.5086 -104.5219 260° West 435 501 38,000  Level Denver Center
Thu 11:13:46 PM 40.4886 -104.6853 261° West 428 493 38,000  Level Denver Center
Thu 11:14:59 PM 40.4703 -104.8433 261° West 438 504 38,000  Level Denver Center
Thu 11:16:01 PM 40.4483 -105.0314 261° West 427 491 38,000  Level Denver Center
Thu 11:17:02 PM 40.4306 -105.1847 261° West 427 491 38,000  Level Denver Center
Thu 11:18:04 PM 40.4111 -105.3486 261° West 426 490 38,000  Level Denver Center
Thu 11:19:06 PM 40.3944 -105.4839 261° West 427 491 38,000  Level Denver Center
Thu 11:20:07 PM 40.3728 -105.6339 259° West 420 483 38,000  Level Denver Center
Thu 11:21:09 PM 40.3511 -105.8197 261° West 428 493 38,000  Level Denver Center
Thu 11:22:10 PM 40.3322 -105.9739 261° West 430 495 38,000  Level Denver Center
Thu 11:23:12 PM 40.3089 -106.1258 259° West 426 490 38,000  Level Denver Center
Thu 11:24:13 PM 40.2886 -106.2825 260° West 430 495 38,000  Level Denver Center
Thu 11:25:14 PM 40.2656 -106.4325 259° West 436 502 38,000  Level Denver Center
Thu 11:26:16 PM 40.2425 -106.5928 259° West 437 503 38,000  Level Denver Center
Thu 11:27:18 PM 40.2206 -106.7494 260° West 438 504 38,000  Level Denver Center
Thu 11:28:19 PM 40.1933 -106.9306 259° West 438 504 38,000  Level Denver Center
Thu 11:29:21 PM 40.1703 -107.0794 259° West 437 503 38,000  Level Denver Center
Thu 11:30:22 PM 40.1439 -107.2547 259° West 438 504 38,000  Level Denver Center
Thu 11:31:24 PM 40.1206 -107.4047 259° West 439 505 38,000  Level Denver Center
Thu 11:32:25 PM 40.0981 -107.5544 259° West 440 506 38,000  Level Denver Center
Thu 11:33:27 PM 40.0700 -107.7281 258° West 438 504 38,000  Level Denver Center
Thu 11:34:28 PM 40.0461 -107.8794 258° West 444 511 38,000  Level Denver Center
Thu 11:35:30 PM 40.0261 -108.0039 258° West 442 509 38,000  Level Denver Center
Thu 11:36:31 PM 39.9936 -108.2039 258° West 445 512 38,000  Level Denver Center
Thu 11:37:32 PM 39.9697 -108.3544 258° West 445 512 38,000  Level Denver Center
Thu 11:38:34 PM 39.9408 -108.5303 258° West 445 512 38,000  Level Denver Center
Thu 11:39:35 PM 39.9158 -108.6811 258° West 447 514 38,000  Level Denver Center
Thu 11:40:37 PM 39.8864 -108.8567 258° West 448 516 38,000  Level Denver Center
Thu 11:41:38 PM 39.8608 -109.0067 258° West 448 516 38,000  Level Denver Center
Thu 11:42:40 PM 39.8311 -109.1836 258° West 450 518 38,000  Level Denver Center
Thu 11:43:13 PM 39.8181 -109.2592 257° West 450 518 38,000  Level Salt Lake Center
Thu 11:44:14 PM 39.7878 -109.4358 257° West 450 518 38,000  Level Salt Lake Center
Thu 11:44:42 PM 39.7747 -109.5106 257° West 449 517 38,000  Level Denver Center
Thu 11:45:44 PM 39.7489 -109.6622 258° West 448 516 38,000  Level Denver Center
Thu 11:46:17 PM 39.7306 -109.7614 257° West 447 514 38,000  Level Salt Lake Center
Thu 11:47:19 PM 39.7039 -109.9117 257° West 447 514 38,000  Level Salt Lake Center
Thu 11:48:20 PM 39.6781 -110.0628 258° West 448 516 38,000  Level Salt Lake Center
Thu 11:49:21 PM 39.6458 -110.2389 257° West 449 517 38,000  Level Salt Lake Center
Thu 11:50:23 PM 39.6186 -110.3911 257° West 451 519 38,000  Level Salt Lake Center
Thu 11:51:24 PM 39.5861 -110.5692 257° West 455 524 38,000  Level Salt Lake Center
Thu 11:52:25 PM 39.5572 -110.7208 256° West 454 522 38,000  Level Salt Lake Center
Thu 11:53:27 PM 39.5292 -110.8722 257° West 452 520 38,000  Level Salt Lake Center
Thu 11:54:28 PM 39.4964 -111.0483 256° West 451 519 38,000  Level Salt Lake Center
Thu 11:55:30 PM 39.4678 -111.1997 256° West 452 520 38,000  Level Salt Lake Center
Thu 11:56:31 PM 39.4378 -111.3569 256° West 453 521 38,000  Level Salt Lake Center
Thu 11:57:32 PM 39.4081 -111.5153 256° West 453 521 38,000  Level Salt Lake Center
Thu 11:58:34 PM 39.3772 -111.6736 256° West 454 522 38,000  Level Salt Lake Center
Thu 11:59:35 PM 39.3456 -111.8325 256° West 456 525 38,000  Level Salt Lake Center
Fri 12:00:36 AM 39.3072 -112.0231 255° West 458 527 38,000  Level Salt Lake Center
Fri 12:01:38 AM 39.2767 -112.1831 256° West 459 528 38,000  Level Salt Lake Center
Fri 12:02:39 AM 39.2439 -112.3411 255° West 459 528 38,000  Level Salt Lake Center
Fri 12:03:40 AM 39.2133 -112.4950 256° West 458 527 38,000  Level Salt Lake Center
Fri 12:04:42 AM 39.1806 -112.6536 255° West 460 529 38,000  Level Salt Lake Center
Fri 12:05:43 AM 39.1475 -112.8119 255° West 461 531 38,000  Level Salt Lake Center
Fri 12:06:44 AM 39.1147 -112.9700 255° West 460 529 38,000  Level Salt Lake Center
Fri 12:07:45 AM 39.0819 -113.1267 255° West 458 527 38,000  Level Salt Lake Center
Fri 12:08:47 AM 39.0422 -113.3158 255° West 458 527 38,000  Level Salt Lake Center
Fri 12:09:48 AM 39.0089 -113.4733 255° West 458 527 38,000  Level Salt Lake Center
Fri 12:10:49 AM 38.9753 -113.6314 255° West 461 531 38,000  Level Salt Lake Center
Fri 12:11:51 AM 38.9411 -113.7894 255° West 462 532 38,000  Level Salt Lake Center
Fri 12:12:52 AM 38.9072 -113.9461 255° West 460 529 38,000  Level Salt Lake Center
Fri 12:13:53 AM 38.8728 -114.1039 254° West 461 531 38,000  Level Salt Lake Center
Fri 12:14:54 AM 38.8381 -114.2633 254° West 465 535 38,000  Level Salt Lake Center
Fri 12:15:56 AM 38.8036 -114.4219 254° West 465 535 38,000  Level Salt Lake Center
Fri 12:16:57 AM 38.7603 -114.6131 254° West 467 537 38,000  Level Salt Lake Center
Fri 12:17:59 AM 38.7250 -114.7711 254° West 466 536 38,000  Level Salt Lake Center
Fri 12:19:00 AM 38.6889 -114.9292 254° West 464 534 38,000  Level Salt Lake Center
Fri 12:20:01 AM 38.6494 -115.0897 253° West 472 543 38,000  Level Salt Lake Center
Fri 12:21:02 AM 38.6133 -115.2475 254° West 468 539 38,000  Level Salt Lake Center
Fri 12:22:04 AM 38.5800 -115.4017 255° West 460 529 38,000  Level Salt Lake Center
Fri 12:23:05 AM 38.5414 -115.5581 253° West 459 528 38,000  Level Salt Lake Center
Fri 12:24:06 AM 38.5064 -115.7156 254° West 461 531 38,000  Level Salt Lake Center
Fri 12:25:08 AM 38.4681 -115.8728 253° West 463 533 38,000  Level Salt Lake Center
Fri 12:26:09 AM 38.4247 -116.0631 254° West 464 534 38,000  Level Salt Lake Center
Fri 12:27:13 AM 38.3864 -116.2206 253° West 466 536 38,000  Level Oakland Center
Fri 12:28:14 AM 38.3483 -116.3800 253° West 470 541 38,000  Level Oakland Center
Fri 12:29:16 AM 38.3089 -116.5394 253° West 472 543 38,000  Level Oakland Center
Fri 12:30:17 AM 38.2706 -116.6986 253° West 471 542 38,000  Level Oakland Center
Fri 12:31:18 AM 38.2317 -116.8583 253° West 473 544 38,000  Level Oakland Center
Fri 12:32:19 AM 38.1931 -117.0158 253° West 469 540 38,000  Level Oakland Center
Fri 12:33:21 AM 38.1489 -117.1892 252° West 468 539 38,000  Level Oakland Center
Fri 12:34:22 AM 38.1094 -117.3489 253° West 472 543 38,000  Level Oakland Center
Fri 12:35:23 AM 38.0706 -117.5053 253° West 467 537 38,000  Level Oakland Center
Fri 12:36:24 AM 38.0300 -117.6611 252° West 467 537 38,000  Level Oakland Center
Fri 12:37:25 AM 37.9956 -117.8194 255° West 466 536 38,000  Level Oakland Center
Fri 12:38:26 AM 37.9803 -117.9800 263° West 460 529 38,000  Level Oakland Center
Fri 12:39:28 AM 37.9633 -118.1417 262° West 462 532 38,000  Level Oakland Center
Fri 12:40:29 AM 37.9419 -118.3361 262° West 465 535 38,000  Level Oakland Center
Fri 12:41:30 AM 37.9236 -118.4989 262° West 465 535 38,000  Level Oakland Center
Fri 12:42:31 AM 37.9058 -118.6631 262° West 467 537 38,000  Level Oakland Center
Fri 12:43:33 AM 37.8892 -118.8247 263° West 464 534 38,000  Level Oakland Center
Fri 12:44:34 AM 37.8703 -118.9847 262° West 462 532 38,000  Level Oakland Center
Fri 12:45:35 AM 37.8431 -119.1519 258° West 458 527 38,000  Level Oakland Center
Fri 12:46:36 AM 37.7653 -119.2828 233° Southwest 465 535 38,000  Level Oakland Center
Fri 12:47:37 AM 37.6822 -119.4092 230° Southwest 464 534 38,000  Level Oakland Center
Fri 12:48:38 AM 37.5981 -119.5389 231° Southwest 476 548 38,000  Level Oakland Center
Fri 12:49:39 AM 37.5144 -119.6678 231° Southwest 473 544 38,000  Level Oakland Center
Fri 12:50:41 AM 37.4306 -119.7958 231° Southwest 474 545 38,000  Level Oakland Center
Fri 12:51:42 AM 37.3467 -119.9222 230° Southwest 475 547 38,000  Level Oakland Center
Fri 12:52:43 AM 37.2639 -120.0497 231° Southwest 471 542 38,000 -393 Level Oakland Center
Fri 12:53:44 AM 37.1792 -120.1747 230° Southwest 470 541 37,200 -885 Descending Oakland Center
Fri 12:54:45 AM 37.0961 -120.2989 230° Southwest 466 536 36,200 -590 Descending Oakland Center
Fri 12:55:46 AM 37.0147 -120.4211 230° Southwest 460 529 36,000 -98 Descending Oakland Center
Fri 12:56:47 AM 36.9322 -120.5444 230° Southwest 460 529 36,000  Level Oakland Center
Fri 12:57:48 AM 36.8342 -120.6908 230° Southwest 461 531 36,000 -49 Level Oakland Center
Fri 12:58:50 AM 36.7522 -120.8114 230° Southwest 468 539 35,900  Descending Oakland Center
Fri 12:59:51 AM 36.6703 -120.9294 229° Southwest 454 522 36,000  Climbing Oakland Center
Fri 01:00:52 AM 36.5856 -121.0550 230° Southwest 470 541 35,900 -98 Descending Oakland Center
Fri 01:01:53 AM 36.5003 -121.1792 230° Southwest 472 543 35,800 -541 Descending Oakland Center
Fri 01:02:54 AM 36.4167 -121.3025 230° Southwest 471 542 34,800 -984 Descending Oakland Center
Fri 01:03:55 AM 36.3311 -121.4267 229° Southwest 474 545 33,800 -2,115 Descending Oakland Center
Fri 01:04:56 AM 36.2717 -121.5633 242° Southwest 484 557 30,500 -2,705 Descending Oakland Center
Fri 01:05:57 AM 36.3183 -121.6944 294° West 435 501 28,300 -2,066 Descending Oakland Center
Fri 01:06:58 AM 36.4108 -121.7539 333° Northwest 380 437 26,300 -2,164 Descending Oakland Center
Fri 01:07:59 AM 36.5033 -121.8114 333° Northwest 349 402 23,900 -2,538 Descending Oakland Center
Fri 01:08:16 AM 36.5333 -121.8333 330° Northwest 338 389 23,000 -2,494 Descending Northern Cal TRACON
Fri 01:09:16 AM 36.6167 -121.8833 334° Northwest 327 376 20,700 -1,943 Descending Northern Cal TRACON
Fri 01:10:01 AM 36.6664 -121.9139 334° Northwest 328 377 19,600 -1,700 Descending Oakland Center
Fri 01:10:16 AM 36.7000 -121.9333 335° Northwest 321 369 19,000 -1,652 Descending Northern Cal TRACON
Fri 01:11:10 AM 36.7667 -121.9667 338° Northwest 313 360 17,700 -1,579 Descending Northern Cal TRACON
Fri 01:12:10 AM 36.8500 -122.0000 342° North 304 350 16,000 -1,842 Descending Northern Cal TRACON
Fri 01:13:04 AM 36.9275 -122.0108 354° North 304 350 14,200 -1,826 Descending Oakland Center
Fri 01:14:05 AM 37.0089 -122.0333 348° North 300 345 12,500 -1,623 Descending Oakland Center
Fri 01:15:06 AM 37.0714 -122.0994 320° Northwest 304 350 10,900 -1,131 Descending Oakland Center
Fri 01:16:07 AM 37.1258 -122.1719 313° West 288 331 10,200 -689 Descending Oakland Center
Fri 01:17:08 AM 37.1739 -122.2336 314° West 254 292 9,500 -738 Descending Oakland Center
Fri 01:18:09 AM 37.2186 -122.2911 314° West 233 268 8,700 -885 Descending Oakland Center
Fri 01:19:10 AM 37.2575 -122.3417 314° West 205 236 7,700 -1,082 Descending Oakland Center
Fri 01:20:11 AM 37.2983 -122.3192 24° Northeast 196 226 6,500 -836 Descending Oakland Center
Fri 01:21:12 AM 37.3294 -122.2658 54° Northeast 191 220 6,000 -246 Descending Oakland Center
Fri 01:22:13 AM 37.3586 -122.2092 57° Northeast 193 222 6,000 -344 Level Oakland Center
Fri 01:23:14 AM 37.3950 -122.1428 55° Northeast 194 223 5,300 -872 Descending Oakland Center
Fri 01:24:10 AM 37.4333 -122.1000 42° Northeast 194 223 4,300 -621 Descending Northern Cal TRACON
Fri 01:25:10 AM 37.4833 -122.1000 360° North 187 215 4,100 -250 Descending Northern Cal TRACON
Fri 01:26:10 AM 37.5167 -122.1333 322° Northwest 181 208 3,800 -550 Descending Northern Cal TRACON
Fri 01:27:10 AM 37.5500 -122.1833 310° West 178 205 3,000 -837 Descending Northern Cal TRACON
Fri 01:28:19 AM 37.5664 -122.2456 288° West 178 205 2,000 -877 Descending Oakland Center
Fri 01:29:20 AM 37.5881 -122.2975 298° West 174 200 1,100 -787 Descending Oakland Center
Fri 01:30:21 AM 37.6058 -122.3400 298° West 156 180 400 -393 Descending Oakland Center
Fri 01:31:22 AM 37.6244 -122.3800 300° West 152 175 300 -98 Descending Oakland Center
Fri 01:33:00 AM 37.6167 -122.3667 322° Northwest  Level FlightAware Approximate

Login

Don't have an account? Register now (free) for customized features, flight alerts, and more!